Time;durP1;ratioP1;P1;durP2;ratioP2;P2;SDS_P1;SDS_P2;PMS_P1;PMS_P2;Temp;Humidity;BMP_temperature;BMP_pressure;BME280_temperature;BME280_humidity;BME280_pressure;Samples;Min_cycle;Max_cycle;Signal;HPM_P1;HPM_P2
2021/12/21 00:02:14;;;;;;;4.00;1.08;;;30.00;99.90;;;;;;5051652;28;20186;-75
2021/12/21 00:04:46;;;;;;;2.60;1.00;;;30.10;99.90;;;;;;5055339;28;20255;-76
2021/12/21 00:07:17;;;;;;;3.50;0.82;;;30.20;99.90;;;;;;5051979;28;20201;-76
2021/12/21 00:09:48;;;;;;;4.18;1.23;;;30.30;99.90;;;;;;5053597;28;20225;-77
2021/12/21 00:12:20;;;;;;;2.10;0.80;;;30.30;99.90;;;;;;5052207;28;20204;-75
2021/12/21 00:14:59;;;;;;;5.03;1.10;;;30.10;99.90;;;;;;5055015;28;20691;-76
2021/12/21 00:17:52;;;;;;;3.10;1.00;;;30.10;99.90;;;;;;5053476;28;20648;-74
2021/12/21 00:20:46;;;;;;;4.38;1.10;;;30.40;99.90;;;;;;5060319;28;20613;-76
2021/12/21 00:26:06;;;;;;;6.80;1.00;;;30.70;99.90;;;;;;5048150;28;20233;-75
2021/12/21 00:28:44;;;;;;;2.25;1.10;;;30.80;99.90;;;;;;5052280;28;20189;-76
2021/12/21 00:31:14;;;;;;;3.83;1.00;;;30.90;99.90;;;;;;5054602;28;20197;-76
2021/12/21 00:33:46;;;;;;;5.75;1.00;;;30.80;99.90;;;;;;5047164;28;20181;-74
2021/12/21 00:36:20;;;;;;;3.75;1.15;;;30.80;99.90;;;;;;5055117;28;20338;-75
2021/12/21 00:38:52;;;;;;;3.60;1.08;;;30.70;99.90;;;;;;5044439;28;20196;-75
2021/12/21 00:41:24;;;;;;;3.65;0.90;;;30.40;99.90;;;;;;5054250;28;20201;-75
2021/12/21 00:43:55;;;;;;;6.57;1.30;;;30.60;99.90;;;;;;5054557;28;20216;-74
2021/12/21 00:46:26;;;;;;;4.10;0.90;;;30.50;99.90;;;;;;5057422;28;20189;-75
2021/12/21 00:49:01;;;;;;;5.35;1.17;;;30.70;99.90;;;;;;5054461;28;20676;-75
2021/12/21 00:51:34;;;;;;;5.13;1.13;;;30.60;99.90;;;;;;5053945;28;20197;-75
2021/12/21 00:54:05;;;;;;;4.18;0.93;;;30.50;99.90;;;;;;5054523;28;20243;-74
2021/12/21 00:56:35;;;;;;;6.80;1.30;;;30.70;99.90;;;;;;5051366;28;20190;-75
2021/12/21 00:59:07;;;;;;;3.22;0.77;;;30.60;99.90;;;;;;5049564;28;20221;-75
2021/12/21 01:01:41;;;;;;;3.55;1.02;;;30.70;99.90;;;;;;5048385;28;20270;-74
2021/12/21 01:04:19;;;;;;;7.25;1.40;;;30.70;99.90;;;;;;5051065;28;20196;-75
2021/12/21 01:07:03;;;;;;;3.83;0.93;;;30.80;99.90;;;;;;5045709;28;20279;-75
2021/12/21 01:10:02;;;;;;;4.45;1.08;;;30.70;99.90;;;;;;5048634;28;20689;-74
2021/12/21 01:12:46;;;;;;;5.65;1.10;;;30.70;99.90;;;;;;5053919;28;20205;-74
2021/12/21 01:15:28;;;;;;;5.82;1.00;;;30.70;99.90;;;;;;5051606;28;20185;-75
2021/12/21 01:18:03;;;;;;;5.47;0.90;;;30.70;99.90;;;;;;5055179;28;20365;-76
2021/12/21 01:20:38;;;;;;;5.93;1.00;;;30.40;99.90;;;;;;5056533;28;20555;-75
2021/12/21 01:23:36;;;;;;;4.78;1.10;;;30.40;99.90;;;;;;5048897;28;20196;-75
2021/12/21 01:26:14;;;;;;;5.90;0.90;;;30.30;99.90;;;;;;5045645;28;20193;-75
2021/12/21 01:28:50;;;;;;;5.57;0.90;;;30.30;99.90;;;;;;5052787;28;20204;-74
2021/12/21 01:31:29;;;;;;;4.22;1.10;;;30.20;99.90;;;;;;5058749;28;20201;-76
2021/12/21 01:34:14;;;;;;;5.60;1.15;;;30.30;99.90;;;;;;5057028;28;20201;-77
2021/12/21 01:36:50;;;;;;;2.90;0.95;;;30.20;99.90;;;;;;5049757;28;20193;-76
2021/12/21 01:39:52;;;;;;;3.45;0.98;;;30.40;99.90;;;;;;5046812;28;20202;-76
2021/12/21 01:42:32;;;;;;;3.92;1.10;;;30.40;99.90;;;;;;5052556;28;20288;-75
2021/12/21 01:50:36;;;;;;;5.25;1.00;;;30.50;99.90;;;;;;5051082;28;20615;-75
2021/12/21 01:53:07;;;;;;;6.72;1.13;;;30.40;99.90;;;;;;5048890;28;20556;-75
2021/12/21 01:55:40;;;;;;;3.47;0.93;;;30.40;99.90;;;;;;5052645;28;20194;-76
2021/12/21 01:58:10;;;;;;;4.18;1.10;;;30.40;99.90;;;;;;5048449;28;20877;-75
2021/12/21 02:00:42;;;;;;;4.65;1.02;;;30.40;99.90;;;;;;5053063;28;20662;-76
2021/12/21 02:03:13;;;;;;;3.35;1.00;;;30.40;99.90;;;;;;5045746;28;20695;-75
2021/12/21 02:05:44;;;;;;;3.75;0.93;;;30.30;99.90;;;;;;5052925;28;20190;-75
2021/12/21 02:08:14;;;;;;;5.90;1.20;;;30.20;99.90;;;;;;5044797;28;20189;-76
2021/12/21 02:10:47;;;;;;;5.25;1.30;;;30.10;99.90;;;;;;5051649;28;20248;-75
2021/12/21 02:13:18;;;;;;;5.00;1.08;;;30.00;99.90;;;;;;5047510;28;20186;-75
2021/12/21 02:15:49;;;;;;;2.47;0.90;;;30.00;99.90;;;;;;5049633;28;20681;-75
2021/12/21 02:21:19;;;;;;;6.38;1.08;;;29.90;99.90;;;;;;5045486;28;20190;-76
2021/12/21 02:23:52;;;;;;;3.47;0.93;;;29.90;99.90;;;;;;5052174;28;20185;-76
2021/12/21 02:26:38;;;;;;;5.05;1.08;;;29.80;99.90;;;;;;5044666;28;20189;-77
2021/12/21 02:29:24;;;;;;;4.75;0.98;;;29.80;99.90;;;;;;5051915;28;20194;-76
2021/12/21 02:31:56;;;;;;;4.35;1.00;;;29.90;99.90;;;;;;5052329;28;20182;-75
2021/12/21 02:34:27;;;;;;;4.38;1.15;;;30.10;99.90;;;;;;5045122;28;20559;-76
2021/12/21 02:37:01;;;;;;;3.22;0.98;;;29.90;99.90;;;;;;5052496;28;20197;-75
2021/12/21 02:39:32;;;;;;;5.50;0.95;;;29.90;99.90;;;;;;5052183;28;20190;-77
2021/12/21 02:42:02;;;;;;;7.13;1.02;;;29.90;99.90;;;;;;5052418;28;20198;-77
2021/12/21 02:44:33;;;;;;;6.65;0.95;;;29.90;99.90;;;;;;5051698;28;20190;-76
2021/12/21 02:47:04;;;;;;;3.25;1.00;;;30.00;99.90;;;;;;5052613;28;20189;-76
2021/12/21 02:49:35;;;;;;;4.82;1.10;;;29.90;99.90;;;;;;5052195;28;20267;-76
2021/12/21 02:52:08;;;;;;;4.50;1.17;;;29.80;99.90;;;;;;5048040;28;20188;-76
2021/12/21 02:54:39;;;;;;;7.72;1.10;;;29.50;99.90;;;;;;5051974;28;20198;-75
2021/12/21 02:57:10;;;;;;;6.05;0.90;;;29.30;99.90;;;;;;5046466;28;20193;-75
2021/12/21 02:59:41;;;;;;;5.25;0.95;;;29.00;99.90;;;;;;5046589;28;20631;-77
2021/12/21 03:02:11;;;;;;;5.18;1.10;;;29.00;99.90;;;;;;5051967;28;20190;-76
2021/12/21 03:04:45;;;;;;;3.75;0.80;;;29.00;99.90;;;;;;5052450;28;20186;-76
2021/12/21 03:07:47;;;;;;;4.22;0.80;;;29.10;99.90;;;;;;5052074;28;20676;-77
2021/12/21 03:10:22;;;;;;;3.55;0.90;;;29.10;99.90;;;;;;5050224;28;20237;-77
2021/12/21 03:15:40;;;;;;;5.07;0.88;;;29.30;99.90;;;;;;5052549;28;20272;-77
2021/12/21 03:18:11;;;;;;;4.30;1.10;;;29.40;99.90;;;;;;5052004;28;20202;-76
2021/12/21 03:20:41;;;;;;;6.70;1.05;;;29.30;99.90;;;;;;5058071;28;20190;-75
2021/12/21 03:23:14;;;;;;;6.32;1.25;;;29.30;99.90;;;;;;5051608;28;20194;-75
2021/12/21 03:25:44;;;;;;;4.72;0.90;;;29.30;99.90;;;;;;5052265;28;20244;-74
2021/12/21 03:28:15;;;;;;;4.65;0.90;;;29.20;99.90;;;;;;5054519;28;20197;-75
2021/12/21 03:30:46;;;;;;;5.95;1.10;;;29.20;99.90;;;;;;5052092;28;20239;-77
2021/12/21 03:33:17;;;;;;;3.47;0.90;;;29.20;99.90;;;;;;5043808;28;20190;-79
2021/12/21 03:35:47;;;;;;;6.53;1.33;;;29.20;99.90;;;;;;5051458;28;20194;-77
2021/12/21 03:38:20;;;;;;;5.22;1.20;;;29.10;99.90;;;;;;5052006;28;20197;-76
2021/12/21 03:40:52;;;;;;;4.63;1.20;;;29.10;99.90;;;;;;5057382;28;20269;-77
2021/12/21 03:43:23;;;;;;;4.20;1.13;;;29.20;99.90;;;;;;5055749;28;20194;-76
2021/12/21 03:46:01;;;;;;;6.88;1.20;;;29.20;99.90;;;;;;5051634;28;20198;-76
2021/12/21 03:48:32;;;;;;;4.57;0.98;;;29.20;99.90;;;;;;5047254;28;20193;-77
2021/12/21 03:51:03;;;;;;;5.40;1.10;;;29.10;99.90;;;;;;5055502;28;20206;-75
2021/12/21 03:53:35;;;;;;;5.65;1.00;;;29.00;99.90;;;;;;5055164;28;20284;-76
2021/12/21 03:56:25;;;;;;;3.38;1.00;;;29.00;99.90;;;;;;5054311;28;20248;-76
2021/12/21 03:58:55;;;;;;;4.20;1.08;;;29.20;99.90;;;;;;5048890;28;20233;-76
2021/12/21 04:01:26;;;;;;;5.55;1.20;;;29.30;99.90;;;;;;5055415;28;20212;-75
2021/12/21 04:03:57;;;;;;;2.92;0.90;;;29.30;99.90;;;;;;5054416;28;20185;-75
2021/12/21 04:06:27;;;;;;;5.30;0.98;;;29.30;99.90;;;;;;5049070;28;20664;-77
2021/12/21 04:09:00;;;;;;;3.65;1.00;;;29.30;99.90;;;;;;5054835;28;20185;-75
2021/12/21 04:11:31;;;;;;;5.70;1.08;;;29.20;99.90;;;;;;5067498;28;20279;-77
2021/12/21 04:14:02;;;;;;;5.60;1.10;;;29.20;99.90;;;;;;5056617;28;20200;-76
2021/12/21 04:16:32;;;;;;;4.60;1.20;;;29.10;99.90;;;;;;5062786;28;20189;-76
2021/12/21 04:19:03;;;;;;;5.35;1.08;;;29.10;99.90;;;;;;5049855;28;20194;-77
2021/12/21 04:21:34;;;;;;;3.58;1.10;;;29.20;99.90;;;;;;5050525;28;20247;-76
2021/12/21 04:24:07;;;;;;;4.78;1.00;;;29.20;99.90;;;;;;5050316;28;20194;-76
2021/12/21 04:26:38;;;;;;;4.93;0.93;;;29.20;99.90;;;;;;5052752;28;20197;-76
2021/12/21 04:29:08;;;;;;;3.53;1.08;;;29.30;99.90;;;;;;5055234;28;20189;-76
2021/12/21 04:31:39;;;;;;;4.72;0.95;;;29.40;99.90;;;;;;5054855;28;20221;-76
2021/12/21 04:34:10;;;;;;;8.13;1.25;;;29.30;99.90;;;;;;5049546;28;20202;-76
2021/12/21 04:36:42;;;;;;;6.10;1.20;;;29.40;99.90;;;;;;5052715;28;20208;-76
2021/12/21 04:39:26;;;;;;;5.72;1.20;;;29.40;99.90;;;;;;5068114;28;20204;-75
2021/12/21 04:41:57;;;;;;;7.25;1.38;;;29.40;99.90;;;;;;5056212;28;20250;-75
2021/12/21 04:44:28;;;;;;;6.00;1.30;;;29.30;99.90;;;;;;5068802;28;20196;-76
2021/12/21 04:46:58;;;;;;;7.80;1.50;;;29.30;99.90;;;;;;5056480;28;20209;-76
2021/12/21 04:49:29;;;;;;;6.68;1.25;;;29.30;99.90;;;;;;5055418;28;20209;-76
2021/12/21 04:52:00;;;;;;;5.00;1.50;;;29.30;99.90;;;;;;5061658;28;20216;-76
2021/12/21 04:54:33;;;;;;;4.00;1.27;;;29.30;99.90;;;;;;5054633;28;20194;-76
2021/12/21 04:57:03;;;;;;;3.97;1.20;;;29.30;99.90;;;;;;5053701;28;20197;-76
2021/12/21 04:59:34;;;;;;;6.25;1.30;;;29.20;99.90;;;;;;5054043;28;20197;-77
2021/12/21 05:02:05;;;;;;;6.68;1.55;;;29.20;99.90;;;;;;5052286;28;20197;-76
2021/12/21 05:04:38;;;;;;;6.47;1.60;;;29.10;99.90;;;;;;5066583;28;20571;-78
2021/12/21 05:07:09;;;;;;;9.88;1.40;;;29.10;99.90;;;;;;5053642;28;20209;-76
2021/12/21 05:09:44;;;;;;;5.57;1.50;;;28.90;99.90;;;;;;5054272;28;20417;-76
2021/12/21 05:12:15;;;;;;;8.05;1.60;;;28.90;99.90;;;;;;5047005;28;20192;-75
2021/12/21 05:14:46;;;;;;;5.97;1.42;;;28.90;99.90;;;;;;5054688;28;20186;-77
2021/12/21 05:17:16;;;;;;;6.93;1.77;;;28.90;99.90;;;;;;5061700;28;20197;-76
2021/12/21 05:19:47;;;;;;;6.72;1.60;;;28.90;99.90;;;;;;5053205;28;20193;-76
2021/12/21 05:22:18;;;;;;;9.90;1.70;;;29.00;99.90;;;;;;5053277;28;20250;-75
2021/12/21 05:24:51;;;;;;;7.22;1.50;;;29.00;99.90;;;;;;5053404;28;20606;-74
2021/12/21 05:27:23;;;;;;;7.13;1.38;;;29.00;99.90;;;;;;5051570;28;20237;-76
2021/12/21 05:29:53;;;;;;;11.70;1.65;;;28.90;99.90;;;;;;5053812;28;20717;-75
2021/12/21 05:32:24;;;;;;;7.18;1.40;;;28.90;99.90;;;;;;5051852;28;20194;-76
2021/12/21 05:34:55;;;;;;;7.35;1.80;;;28.90;99.90;;;;;;5053159;28;20539;-75
2021/12/21 05:37:25;;;;;;;6.50;1.42;;;29.00;99.90;;;;;;5053657;28;20190;-75
2021/12/21 05:40:09;;;;;;;8.63;1.55;;;28.90;99.90;;;;;;5051605;28;20182;-79
2021/12/21 05:42:40;;;;;;;4.70;1.20;;;29.00;99.90;;;;;;5052513;28;20189;-75
2021/12/21 05:45:12;;;;;;;5.70;1.33;;;28.90;99.90;;;;;;5053880;28;20248;-79
2021/12/21 05:47:43;;;;;;;8.00;1.45;;;28.90;99.90;;;;;;5058662;28;20593;-75
2021/12/21 05:50:17;;;;;;;4.70;1.50;;;29.00;99.90;;;;;;5051902;28;20193;-77
2021/12/21 05:52:48;;;;;;;5.53;1.50;;;29.10;99.90;;;;;;5050257;28;20669;-76
2021/12/21 05:55:21;;;;;;;6.40;1.27;;;29.00;99.90;;;;;;5052425;28;20190;-76
2021/12/21 05:57:52;;;;;;;7.40;1.52;;;28.90;99.90;;;;;;5053064;28;20220;-78
2021/12/21 06:00:25;;;;;;;6.22;1.40;;;28.90;99.90;;;;;;5043101;28;20661;-76
2021/12/21 06:02:56;;;;;;;4.07;1.23;;;28.90;99.90;;;;;;5047192;28;20592;-75
2021/12/21 06:05:27;;;;;;;7.63;1.60;;;28.90;99.90;;;;;;5050528;28;20186;-76
2021/12/21 06:07:57;;;;;;;8.43;1.60;;;28.70;99.90;;;;;;5046826;28;20193;-76
2021/12/21 06:10:34;;;;;;;7.57;1.30;;;28.70;99.90;;;;;;5052905;28;20237;-76
2021/12/21 06:16:09;;;;;;;5.95;1.40;;;28.50;99.90;;;;;;5052324;28;20204;-76
2021/12/21 06:27:06;;;;;;;6.95;1.42;;;28.40;99.90;;;;;;5046345;28;20224;-76
2021/12/21 06:29:37;;;;;;;5.22;1.50;;;28.20;99.90;;;;;;5050551;28;20193;-75
2021/12/21 06:32:09;;;;;;;6.72;1.60;;;28.20;99.90;;;;;;5045929;28;20227;-77
2021/12/21 06:34:43;;;;;;;5.47;1.45;;;28.20;99.90;;;;;;5048265;28;20194;-75
2021/12/21 06:37:14;;;;;;;5.65;1.27;;;28.20;99.90;;;;;;5052530;28;20189;-75
2021/12/21 06:39:46;;;;;;;7.53;1.50;;;28.20;99.90;;;;;;5044336;28;20198;-75
2021/12/21 06:42:20;;;;;;;7.70;1.33;;;28.10;99.90;;;;;;5052585;28;20189;-75
2021/12/21 06:44:55;;;;;;;6.53;1.27;;;28.10;99.90;;;;;;5051785;28;23081;-76
2021/12/21 06:53:00;;;;;;;6.65;1.60;;;28.00;99.90;;;;;;5052477;28;20239;-75
2021/12/21 06:55:31;;;;;;;10.05;1.33;;;27.90;99.90;;;;;;5052265;28;20649;-77
2021/12/21 06:58:03;;;;;;;7.93;1.60;;;27.80;99.90;;;;;;5051564;28;20232;-76
2021/12/21 07:00:34;;;;;;;7.28;1.58;;;27.70;99.90;;;;;;5045928;28;20550;-76
2021/12/21 07:03:06;;;;;;;5.57;1.40;;;27.80;99.90;;;;;;5051021;28;20189;-76
2021/12/21 07:05:37;;;;;;;9.63;1.33;;;27.70;99.90;;;;;;5041255;28;20566;-75
2021/12/21 07:08:09;;;;;;;6.63;1.50;;;27.70;99.90;;;;;;5048941;28;20189;-76
2021/12/21 07:10:41;;;;;;;5.57;1.50;;;27.80;99.90;;;;;;5051399;28;20316;-76
2021/12/21 07:18:47;;;;;;;6.57;1.20;;;27.70;99.90;;;;;;5048756;28;20189;-76
2021/12/21 07:21:18;;;;;;;5.00;1.35;;;27.70;99.90;;;;;;5054859;28;20196;-76
2021/12/21 07:23:49;;;;;;;6.50;1.48;;;27.70;99.90;;;;;;5056478;28;20182;-75
2021/12/21 07:26:20;;;;;;;4.40;1.30;;;27.50;99.90;;;;;;5055663;28;20217;-76
2021/12/21 07:28:53;;;;;;;6.13;1.42;;;27.50;99.90;;;;;;5056019;28;20194;-76
2021/12/21 07:31:24;;;;;;;5.93;1.42;;;27.40;99.90;;;;;;5055886;28;20677;-76
2021/12/21 07:33:55;;;;;;;5.07;1.35;;;27.40;99.90;;;;;;5053713;28;20748;-77
2021/12/21 07:36:25;;;;;;;9.98;1.45;;;27.30;99.90;;;;;;5056187;28;20190;-77
2021/12/21 07:38:56;;;;;;;5.57;1.42;;;27.20;99.90;;;;;;5047811;28;20660;-76
2021/12/21 07:41:27;;;;;;;6.47;1.50;;;27.20;99.90;;;;;;5055728;28;20190;-77
2021/12/21 07:43:59;;;;;;;9.43;4.40;;;27.10;99.90;;;;;;5056349;28;20209;-76
2021/12/21 07:46:30;;;;;;;7.10;1.90;;;27.00;99.90;;;;;;5055623;28;20193;-76
2021/12/21 07:49:01;;;;;;;10.73;1.73;;;27.10;99.90;;;;;;5055706;28;20637;-76
2021/12/21 07:51:32;;;;;;;4.72;1.40;;;27.00;99.90;;;;;;5054413;28;20240;-76
2021/12/21 07:54:03;;;;;;;6.43;1.52;;;27.10;99.90;;;;;;5054909;28;20201;-77
2021/12/21 07:56:34;;;;;;;7.60;1.58;;;27.10;99.90;;;;;;5055564;28;20190;-79
2021/12/21 07:59:06;;;;;;;5.97;1.55;;;27.10;99.90;;;;;;5054173;28;20193;-76
2021/12/21 08:01:37;;;;;;;4.80;1.50;;;27.10;99.90;;;;;;5053364;28;20201;-77
2021/12/21 08:04:09;;;;;;;5.38;1.55;;;27.00;99.90;;;;;;5054654;28;20200;-76
2021/12/21 08:06:40;;;;;;;5.05;1.08;;;27.00;99.90;;;;;;5055394;28;20586;-77
2021/12/21 08:09:11;;;;;;;7.47;1.20;;;26.90;99.90;;;;;;5053426;28;20194;-77
2021/12/21 08:14:30;;;;;;;4.50;1.10;;;26.60;99.90;;;;;;5053809;28;20707;-76
2021/12/21 08:17:01;;;;;;;5.32;1.30;;;26.60;99.90;;;;;;5054078;28;20189;-76
2021/12/21 08:19:32;;;;;;;6.78;1.27;;;26.60;99.90;;;;;;5053529;28;20654;-76
2021/12/21 08:22:02;;;;;;;6.22;1.45;;;26.40;99.90;;;;;;5054531;28;20653;-76
2021/12/21 08:24:33;;;;;;;5.90;1.80;;;26.40;99.90;;;;;;5054602;28;20205;-76
2021/12/21 08:27:05;;;;;;;8.98;1.73;;;26.30;99.90;;;;;;5052367;28;20239;-75
2021/12/21 08:29:38;;;;;;;4.93;1.30;;;26.30;99.90;;;;;;5053511;28;20197;-76
2021/12/21 08:32:09;;;;;;;5.70;1.50;;;26.20;99.90;;;;;;5053893;28;20214;-76
2021/12/21 08:34:40;;;;;;;7.15;1.60;;;26.10;99.90;;;;;;5054184;28;20655;-76
2021/12/21 08:37:11;;;;;;;6.57;1.55;;;26.10;99.90;;;;;;5055520;28;20568;-77
2021/12/21 08:39:42;;;;;;;6.70;1.65;;;26.00;99.90;;;;;;5054009;28;20194;-75
2021/12/21 08:42:15;;;;;;;8.20;1.52;;;26.00;99.90;;;;;;5053468;28;20194;-76
2021/12/21 08:44:48;;;;;;;7.32;1.50;;;25.90;99.90;;;;;;5052946;28;20248;-77
2021/12/21 08:47:19;;;;;;;7.97;1.50;;;25.90;99.90;;;;;;5051112;28;20209;-75
2021/12/21 08:49:51;;;;;;;6.82;1.80;;;25.80;99.90;;;;;;5053966;28;20193;-75
2021/12/21 08:52:21;;;;;;;10.27;1.75;;;25.70;99.90;;;;;;5053674;28;20304;-76
2021/12/21 08:54:52;;;;;;;9.43;1.63;;;25.60;99.90;;;;;;5053942;28;20268;-75
2021/12/21 08:57:23;;;;;;;8.75;1.80;;;25.60;99.90;;;;;;5053164;28;20229;-75
2021/12/21 08:59:56;;;;;;;5.57;1.48;;;25.60;99.90;;;;;;5049309;28;20182;-76
2021/12/21 09:02:29;;;;;;;8.02;1.92;;;25.50;99.90;;;;;;5052698;28;20192;-75
2021/12/21 09:04:59;;;;;;;10.40;1.98;;;25.50;99.90;;;;;;5053041;28;20195;-76
2021/12/21 09:07:30;;;;;;;8.85;1.80;;;25.50;99.90;;;;;;5053878;28;20199;-75
2021/12/21 09:10:01;;;;;;;9.40;2.20;;;25.40;99.90;;;;;;5053654;28;20221;-76
2021/12/21 09:12:31;;;;;;;7.32;1.95;;;25.40;99.90;;;;;;5052886;28;20214;-76
2021/12/21 09:15:05;;;;;;;7.15;2.03;;;25.30;99.90;;;;;;5050484;28;20201;-75
2021/12/21 09:17:35;;;;;;;7.18;1.90;;;25.30;99.90;;;;;;5053919;28;20185;-75
2021/12/21 09:20:07;;;;;;;7.18;1.95;;;25.20;99.90;;;;;;5051404;28;20186;-75
2021/12/21 09:22:37;;;;;;;7.30;1.73;;;25.20;99.90;;;;;;5049638;28;20186;-75
2021/12/21 09:25:09;;;;;;;10.00;2.60;;;25.20;99.90;;;;;;5051382;28;20190;-75
2021/12/21 09:27:40;;;;;;;11.10;2.25;;;25.20;99.90;;;;;;5052165;28;20672;-74
2021/12/21 09:30:16;;;;;;;7.45;2.03;;;25.20;99.90;;;;;;5052058;28;20194;-74
2021/12/21 09:32:47;;;;;;;8.52;1.65;;;25.20;99.90;;;;;;5052251;28;20213;-76
2021/12/21 09:35:18;;;;;;;11.50;1.90;;;25.20;99.90;;;;;;5048097;28;20185;-76
2021/12/21 09:37:50;;;;;;;7.47;1.95;;;25.20;99.90;;;;;;5053433;28;20253;-76
2021/12/21 09:40:23;;;;;;;6.97;1.83;;;25.20;99.90;;;;;;5047500;28;20247;-75
2021/12/21 09:42:54;;;;;;;7.07;2.08;;;25.20;99.90;;;;;;5052323;28;20198;-75
2021/12/21 09:45:27;;;;;;;6.25;1.88;;;25.20;99.90;;;;;;5051820;28;20247;-74
2021/12/21 09:47:58;;;;;;;9.57;1.85;;;25.30;99.90;;;;;;5052006;28;20186;-75
2021/12/21 09:50:29;;;;;;;8.38;1.73;;;25.30;99.90;;;;;;5052824;28;20197;-75
2021/12/21 09:53:00;;;;;;;7.28;1.90;;;25.20;99.90;;;;;;5052595;28;20273;-75
2021/12/21 09:55:30;;;;;;;9.38;2.00;;;25.20;99.90;;;;;;5052218;28;20259;-77
2021/12/21 09:58:01;;;;;;;6.72;1.60;;;25.20;99.90;;;;;;5051849;28;20233;-75
2021/12/21 10:00:34;;;;;;;6.60;1.63;;;25.20;99.90;;;;;;5046027;28;20714;-76
2021/12/21 10:03:09;;;;;;;6.00;1.35;;;25.20;99.90;;;;;;5052978;28;20194;-76
2021/12/21 10:05:42;;;;;;;6.32;1.48;;;25.20;99.90;;;;;;5052411;28;20193;-76
2021/12/21 10:08:16;;;;;;;6.20;1.52;;;25.30;99.90;;;;;;5050460;28;20248;-76
2021/12/21 10:10:48;;;;;;;9.63;1.73;;;25.20;99.90;;;;;;5053849;28;20623;-76
2021/12/21 10:13:21;;;;;;;6.60;1.40;;;25.30;99.90;;;;;;5053117;28;20214;-76
2021/12/21 10:15:54;;;;;;;8.77;2.05;;;25.30;99.90;;;;;;5052626;28;20247;-76
2021/12/21 10:18:32;;;;;;;9.05;2.03;;;25.30;99.90;;;;;;5052369;28;20186;-76
2021/12/21 10:21:05;;;;;;;9.05;2.22;;;25.40;99.90;;;;;;5052635;28;20651;-76
2021/12/21 10:23:37;;;;;;;5.47;1.55;;;25.40;99.90;;;;;;5052814;28;20194;-76
2021/12/21 10:26:10;;;;;;;6.25;2.00;;;25.40;99.90;;;;;;5053109;28;20185;-76
2021/12/21 10:28:42;;;;;;;7.53;1.73;;;25.40;99.90;;;;;;5044452;28;20720;-76
2021/12/21 10:31:16;;;;;;;8.25;2.10;;;25.40;99.90;;;;;;5053224;28;20186;-76
2021/12/21 10:33:56;;;;;;;5.53;2.10;;;25.40;99.90;;;;;;5047612;28;20214;-76
2021/12/21 10:36:29;;;;;;;10.95;2.33;;;25.40;99.90;;;;;;5042340;28;20302;-76
2021/12/21 10:39:01;;;;;;;9.32;2.22;;;25.30;99.90;;;;;;5051130;28;20193;-76
2021/12/21 10:41:45;;;;;;;10.52;2.13;;;25.30;99.90;;;;;;5054444;28;20239;-76
2021/12/21 10:44:17;;;;;;;10.45;2.20;;;25.20;99.90;;;;;;5047470;28;20186;-76
2021/12/21 10:46:53;;;;;;;8.02;2.00;;;25.20;99.90;;;;;;5052324;28;20197;-76
2021/12/21 10:49:26;;;;;;;10.48;2.00;;;25.10;99.90;;;;;;5051775;28;20200;-76
2021/12/21 10:52:00;;;;;;;11.65;2.15;;;25.10;99.90;;;;;;5061191;28;20216;-76
2021/12/21 10:54:36;;;;;;;10.18;1.92;;;25.00;99.90;;;;;;5052376;28;20707;-76
2021/12/21 10:57:10;;;;;;;9.05;1.98;;;25.00;99.90;;;;;;5051977;28;20221;-76
2021/12/21 10:59:43;;;;;;;8.05;1.80;;;25.00;99.90;;;;;;5052669;28;20190;-75
2021/12/21 11:02:18;;;;;;;12.18;2.13;;;24.90;99.90;;;;;;5052610;28;20194;-76
2021/12/21 11:04:53;;;;;;;7.47;1.73;;;24.80;99.90;;;;;;5052693;28;20189;-76
2021/12/21 11:07:29;;;;;;;7.50;1.80;;;24.80;99.90;;;;;;5052981;28;20200;-75
2021/12/21 11:10:03;;;;;;;11.20;2.00;;;24.70;99.90;;;;;;5048978;28;20217;-75
2021/12/21 11:12:45;;;;;;;7.95;1.98;;;24.70;99.90;;;;;;5046949;28;20216;-75
2021/12/21 11:15:17;;;;;;;11.23;2.08;;;24.60;99.90;;;;;;5054600;28;20198;-76
2021/12/21 11:17:50;;;;;;;10.40;2.15;;;24.60;99.90;;;;;;5058699;28;20239;-76
2021/12/21 11:20:21;;;;;;;11.07;2.20;;;24.60;99.90;;;;;;5056805;28;20590;-75
2021/12/21 11:22:53;;;;;;;10.55;2.30;;;24.60;99.90;;;;;;5054400;28;20202;-75
2021/12/21 11:25:24;;;;;;;9.55;2.35;;;24.60;99.90;;;;;;5050354;28;20193;-75
2021/12/21 11:27:56;;;;;;;10.30;2.60;;;24.50;99.90;;;;;;5055560;28;20213;-76
2021/12/21 11:30:27;;;;;;;11.30;2.30;;;24.60;99.90;;;;;;5060751;28;20263;-75
2021/12/21 11:33:03;;;;;;;13.82;2.50;;;24.50;99.90;;;;;;5057997;28;20679;-76
2021/12/21 11:38:21;;;;;;;15.55;2.72;;;24.40;99.90;;;;;;5052516;28;20191;-76
2021/12/21 11:40:52;;;;;;;15.32;2.50;;;24.40;99.90;;;;;;5052404;28;20197;-75
2021/12/21 11:43:32;;;;;;;13.88;2.50;;;24.40;99.90;;;;;;5055567;28;20266;-75
2021/12/21 11:46:07;;;;;;;13.30;2.30;;;24.30;99.90;;;;;;5044630;28;20239;-75
2021/12/21 11:48:48;;;;;;;11.25;2.38;;;24.30;99.90;;;;;;5058800;28;20188;-76
2021/12/21 11:51:25;;;;;;;12.75;2.40;;;24.30;99.90;;;;;;5051365;28;20240;-75
2021/12/21 11:53:56;;;;;;;11.75;2.40;;;24.30;99.90;;;;;;5050891;28;20216;-76
2021/12/21 11:56:30;;;;;;;11.07;2.33;;;24.30;99.90;;;;;;5051658;28;20189;-75
2021/12/21 11:59:02;;;;;;;12.57;2.22;;;24.30;99.90;;;;;;5054686;28;20692;-75
2021/12/21 12:01:37;;;;;;;12.88;2.45;;;24.30;99.90;;;;;;5052921;28;20185;-75
2021/12/21 12:04:12;;;;;;;12.93;2.50;;;24.30;99.90;;;;;;5055151;28;20653;-75
2021/12/21 12:06:51;;;;;;;10.20;2.30;;;24.30;99.90;;;;;;5055249;28;20188;-74
2021/12/21 12:09:26;;;;;;;10.98;2.38;;;24.30;99.90;;;;;;5054585;28;20240;-75
2021/12/21 12:12:08;;;;;;;10.98;2.35;;;24.30;99.90;;;;;;5053769;28;20253;-76
2021/12/21 12:14:39;;;;;;;15.68;2.63;;;24.20;99.90;;;;;;5050365;28;20186;-75
2021/12/21 12:17:16;;;;;;;13.25;2.63;;;24.20;99.90;;;;;;5054964;28;20192;-75
2021/12/21 12:19:55;;;;;;;18.38;3.22;;;24.10;99.90;;;;;;5054755;28;20208;-76
2021/12/21 12:22:36;;;;;;;13.05;3.08;;;24.10;99.90;;;;;;5054239;28;20249;-75
2021/12/21 12:25:08;;;;;;;16.40;2.92;;;24.00;99.90;;;;;;5055048;28;20193;-75
2021/12/21 12:27:46;;;;;;;16.02;2.55;;;24.00;99.90;;;;;;5054377;28;20248;-75
2021/12/21 12:30:19;;;;;;;17.05;2.60;;;24.00;99.90;;;;;;5055072;28;20189;-76
2021/12/21 12:32:55;;;;;;;14.45;2.17;;;23.90;99.90;;;;;;5054422;28;20236;-75
2021/12/21 12:35:30;;;;;;;17.02;3.00;;;23.90;99.90;;;;;;5051996;28;20232;-75
2021/12/21 12:38:02;;;;;;;14.23;2.70;;;23.90;99.90;;;;;;5055260;28;20236;-75
2021/12/21 12:40:36;;;;;;;14.13;2.70;;;23.80;99.90;;;;;;5055003;28;20539;-76
2021/12/21 12:43:08;;;;;;;11.88;2.30;;;23.80;99.90;;;;;;5055594;28;21572;-76
2021/12/21 12:45:42;;;;;;;13.25;3.03;;;23.80;99.90;;;;;;5054692;28;20641;-76
2021/12/21 12:48:22;;;;;;;13.07;2.30;;;23.70;99.90;;;;;;5054530;28;20186;-76
2021/12/21 12:50:56;;;;;;;14.07;2.70;;;23.70;99.90;;;;;;5054474;28;20186;-76
2021/12/21 12:53:37;;;;;;;13.50;2.83;;;23.70;99.90;;;;;;5053969;28;20227;-76
2021/12/21 12:56:09;;;;;;;14.60;2.80;;;23.70;99.90;;;;;;5053988;28;20189;-75
2021/12/21 12:58:49;;;;;;;13.50;2.53;;;23.70;99.90;;;;;;5057794;28;20559;-75
2021/12/21 13:01:23;;;;;;;11.82;2.70;;;23.60;99.90;;;;;;5053723;28;20197;-76
2021/12/21 13:03:58;;;;;;;15.05;2.85;;;23.60;99.90;;;;;;5054159;28;20239;-75
2021/12/21 13:06:32;;;;;;;10.43;2.50;;;23.60;99.90;;;;;;5054342;28;20189;-75
2021/12/21 13:09:03;;;;;;;16.02;2.63;;;23.50;99.90;;;;;;5057528;28;20256;-76
2021/12/21 13:11:36;;;;;;;12.38;2.80;;;23.50;99.90;;;;;;5054259;28;20193;-75
2021/12/21 13:14:07;;;;;;;12.93;2.47;;;23.50;99.90;;;;;;5052648;28;20209;-76
2021/12/21 13:16:40;;;;;;;14.52;2.65;;;23.50;99.90;;;;;;5053374;28;20209;-75
2021/12/21 13:19:12;;;;;;;15.68;2.97;;;23.40;99.90;;;;;;5053751;28;20193;-76
2021/12/21 13:21:48;;;;;;;23.45;3.22;;;23.40;99.90;;;;;;5054273;28;20528;-75
2021/12/21 13:24:20;;;;;;;18.15;3.10;;;23.40;99.90;;;;;;5048437;28;20196;-75
2021/12/21 13:26:52;;;;;;;13.90;3.00;;;23.30;99.90;;;;;;5050442;28;20194;-76
2021/12/21 13:29:25;;;;;;;15.10;2.78;;;23.30;99.90;;;;;;5046461;28;20192;-75
2021/12/21 13:31:56;;;;;;;14.82;3.13;;;23.30;99.90;;;;;;5053661;28;20189;-75
2021/12/21 13:34:28;;;;;;;15.20;2.95;;;23.20;99.90;;;;;;5054073;28;20218;-75
2021/12/21 13:37:03;;;;;;;25.15;3.30;;;23.20;99.90;;;;;;5053634;28;20193;-76
2021/12/21 13:39:36;;;;;;;17.95;3.10;;;23.20;99.90;;;;;;5053416;28;20196;-75
2021/12/21 13:42:10;;;;;;;18.50;3.33;;;23.10;99.90;;;;;;5055830;28;20217;-76
2021/12/21 13:44:43;;;;;;;17.83;3.40;;;23.10;99.90;;;;;;5059723;28;20188;-75
2021/12/21 13:47:21;;;;;;;14.93;3.33;;;23.10;99.90;;;;;;5053187;28;20646;-76
2021/12/21 13:50:13;;;;;;;18.98;3.22;;;23.00;99.90;;;;;;5058584;28;20284;-76
2021/12/21 13:52:47;;;;;;;14.48;3.22;;;23.00;99.90;;;;;;5054972;28;20710;-76
2021/12/21 13:55:25;;;;;;;17.25;3.13;;;23.00;99.90;;;;;;5053471;28;20185;-75
2021/12/21 13:57:58;;;;;;;20.58;3.42;;;23.00;99.90;;;;;;5052460;28;20227;-76